createdAt,value
2023-06-21T00:00:41.818Z,18.38
2023-06-21T00:03:08.426Z,18.36
2023-06-21T00:05:34.963Z,18.35
2023-06-21T00:08:01.448Z,18.34
2023-06-21T00:10:29.718Z,18.33
2023-06-21T00:12:56.769Z,18.34
2023-06-21T00:15:23.749Z,18.35
2023-06-21T00:17:50.689Z,18.35
2023-06-21T00:20:17.818Z,18.34
2023-06-21T00:22:48.243Z,18.35
2023-06-21T00:25:16.081Z,18.35
2023-06-21T00:27:45.782Z,18.37
2023-06-21T00:30:12.264Z,18.36
2023-06-21T00:32:39.933Z,18.37
2023-06-21T00:35:07.434Z,18.37
2023-06-21T00:37:34.978Z,18.34
2023-06-21T00:40:01.483Z,18.32
2023-06-21T00:42:28.172Z,18.30
2023-06-21T00:44:54.659Z,18.27
2023-06-21T00:47:21.249Z,18.26
2023-06-21T00:49:47.741Z,18.25
2023-06-21T00:52:14.870Z,18.24
2023-06-21T00:54:42.679Z,18.22
2023-06-21T00:57:09.254Z,18.22
2023-06-21T00:59:36.496Z,18.22
2023-06-21T01:02:03.372Z,18.20
2023-06-21T01:04:33.017Z,18.17
2023-06-21T01:07:18.424Z,18.12
2023-06-21T01:10:03.872Z,18.12
2023-06-21T01:13:10.930Z,18.10
2023-06-21T01:15:44.837Z,18.08
2023-06-21T01:18:14.969Z,18.10
2023-06-21T01:20:49.979Z,18.08
2023-06-21T01:23:39.554Z,18.07
2023-06-21T01:26:11.267Z,18.07
2023-06-21T01:28:56.931Z,18.01
2023-06-21T01:31:24.501Z,17.99
2023-06-21T01:33:52.001Z,17.96
2023-06-21T01:36:19.386Z,17.93
2023-06-21T01:38:45.818Z,17.91
2023-06-21T01:41:13.648Z,17.87
2023-06-21T01:43:40.602Z,17.81
2023-06-21T01:46:08.818Z,17.75
2023-06-21T01:48:36.212Z,17.74
2023-06-21T01:51:05.167Z,17.71
2023-06-21T01:53:35.050Z,17.72
2023-06-21T01:56:08.503Z,17.73
2023-06-21T01:58:35.422Z,17.75
2023-06-21T02:01:04.665Z,17.75
2023-06-21T02:03:32.812Z,17.78
2023-06-21T02:06:02.784Z,17.80
2023-06-21T02:08:30.117Z,17.82
2023-06-21T02:10:56.632Z,17.84
2023-06-21T02:13:23.220Z,17.85
2023-06-21T02:15:49.716Z,17.86
2023-06-21T02:18:16.241Z,17.88
2023-06-21T02:20:42.748Z,17.88
2023-06-21T02:23:10.289Z,17.90
2023-06-21T02:25:38.116Z,17.92
2023-06-21T02:28:05.414Z,17.91
2023-06-21T02:30:31.946Z,17.91
2023-06-21T02:32:58.570Z,17.91
2023-06-21T02:35:25.346Z,17.90
2023-06-21T02:37:52.233Z,17.90
2023-06-21T02:40:18.820Z,17.90
2023-06-21T02:42:45.584Z,17.88
2023-06-21T02:45:12.304Z,17.87
2023-06-21T02:47:39.070Z,17.87
2023-06-21T02:50:07.048Z,17.86
2023-06-21T02:52:34.472Z,17.85
2023-06-21T02:55:04.001Z,17.83
2023-06-21T02:57:30.860Z,17.81
2023-06-21T03:00:00.303Z,17.80
2023-06-21T03:02:34.542Z,17.80
2023-06-21T03:05:01.691Z,17.79
2023-06-21T03:07:28.902Z,17.77
2023-06-21T03:09:56.346Z,17.77
2023-06-21T03:12:22.815Z,17.77
2023-06-21T03:14:50.220Z,17.78
2023-06-21T03:17:17.267Z,17.77
2023-06-21T03:19:43.690Z,17.78
2023-06-21T03:22:10.861Z,17.78
2023-06-21T03:24:37.877Z,17.78
2023-06-21T03:27:04.882Z,17.78
2023-06-21T03:29:34.599Z,17.78
2023-06-21T03:32:01.399Z,17.77
2023-06-21T03:34:27.909Z,17.74
2023-06-21T03:36:54.416Z,17.73
2023-06-21T03:39:23.855Z,17.71
2023-06-21T03:41:50.349Z,17.72
2023-06-21T03:44:17.844Z,17.72
2023-06-21T03:46:44.432Z,17.75
2023-06-21T03:49:11.047Z,17.77
2023-06-21T03:51:37.874Z,17.78
2023-06-21T03:54:04.909Z,17.80
2023-06-21T03:56:31.474Z,17.82
2023-06-21T03:58:59.848Z,17.85
2023-06-21T04:01:26.430Z,17.87
2023-06-21T04:03:53.039Z,17.88
2023-06-21T04:06:19.526Z,17.91
2023-06-21T04:08:46.015Z,17.92
2023-06-21T04:11:12.481Z,17.93
2023-06-21T04:13:38.968Z,17.93
2023-06-21T04:16:05.422Z,17.93
2023-06-21T04:18:32.114Z,17.94
2023-06-21T04:20:58.574Z,17.92
2023-06-21T04:23:27.413Z,17.93
2023-06-21T04:25:54.087Z,17.96
2023-06-21T04:28:25.856Z,17.98
2023-06-21T04:30:53.942Z,17.99
2023-06-21T04:33:20.432Z,18.01
2023-06-21T04:35:46.868Z,18.05
2023-06-21T04:38:13.618Z,18.16
2023-06-21T04:40:41.625Z,18.27
2023-06-21T04:43:08.370Z,18.35
2023-06-21T04:45:34.995Z,18.42
2023-06-21T04:48:01.741Z,18.46
2023-06-21T04:50:28.546Z,18.50
2023-06-21T04:53:00.093Z,18.54
2023-06-21T04:55:27.803Z,18.60
2023-06-21T04:57:54.818Z,18.63
2023-06-21T05:00:21.305Z,18.69
2023-06-21T05:02:48.689Z,18.82
2023-06-21T05:05:15.948Z,18.85
2023-06-21T05:07:42.503Z,18.95
2023-06-21T05:10:10.396Z,18.94
2023-06-21T05:12:37.310Z,19.06
2023-06-21T05:15:04.410Z,19.05
2023-06-21T05:17:30.886Z,19.24
2023-06-21T05:19:57.319Z,19.89
2023-06-21T05:22:23.806Z,20.09
2023-06-21T05:24:50.298Z,20.16
2023-06-21T05:27:16.776Z,20.08
2023-06-21T05:29:43.264Z,19.95
2023-06-21T05:32:09.757Z,20.09
2023-06-21T05:34:36.189Z,21.07
2023-06-21T05:37:02.700Z,21.45
2023-06-21T05:39:29.574Z,21.26
2023-06-21T05:41:55.988Z,20.89
2023-06-21T05:44:22.445Z,20.73
2023-06-21T05:46:48.869Z,20.93
2023-06-21T05:49:15.358Z,21.90
2023-06-21T05:51:41.892Z,22.19
2023-06-21T05:54:08.542Z,23.07
2023-06-21T05:56:38.257Z,23.59
2023-06-21T05:59:05.366Z,24.22
2023-06-21T06:01:31.984Z,24.47
2023-06-21T06:03:58.614Z,24.54
2023-06-21T06:06:35.623Z,23.68
2023-06-21T06:09:02.493Z,23.02
2023-06-21T06:11:29.024Z,22.73
2023-06-21T06:13:55.567Z,23.21
2023-06-21T06:16:22.054Z,24.52
2023-06-21T06:18:48.547Z,25.18
2023-06-21T06:21:15.828Z,25.46
2023-06-21T06:23:42.313Z,24.80
2023-06-21T06:26:10.921Z,23.86
2023-06-21T06:28:37.598Z,23.15
2023-06-21T06:31:04.210Z,22.75
2023-06-21T06:33:30.686Z,22.82
2023-06-21T06:35:57.452Z,22.85
2023-06-21T06:38:23.933Z,23.31
2023-06-21T06:40:50.434Z,23.93
2023-06-21T06:43:16.946Z,23.78
2023-06-21T06:45:43.451Z,23.84
2023-06-21T06:48:09.917Z,23.75
2023-06-21T06:50:39.344Z,23.47
2023-06-21T06:53:06.632Z,23.49
2023-06-21T06:55:33.129Z,23.31
2023-06-21T06:58:05.629Z,23.23
2023-06-21T07:00:33.103Z,23.50
2023-06-21T07:02:59.642Z,23.89
2023-06-21T07:05:27.452Z,23.64
2023-06-21T07:07:55.712Z,23.42
2023-06-21T07:10:23.471Z,23.30
2023-06-21T07:12:49.891Z,23.25
2023-06-21T07:15:16.343Z,23.29
2023-06-21T07:17:42.829Z,23.29
2023-06-21T07:20:10.035Z,23.42
2023-06-21T07:22:36.654Z,23.66
2023-06-21T07:25:03.936Z,24.01
2023-06-21T07:27:30.824Z,24.13
2023-06-21T07:29:57.709Z,23.83
2023-06-21T07:32:28.857Z,23.99
2023-06-21T07:34:58.657Z,24.29
2023-06-21T07:37:25.613Z,24.42
2023-06-21T07:39:55.045Z,24.17
2023-06-21T07:42:23.424Z,24.20
2023-06-21T07:44:52.146Z,24.22
2023-06-21T07:47:19.216Z,24.18
2023-06-21T07:49:45.718Z,24.26
2023-06-21T07:52:12.403Z,24.20
2023-06-21T07:54:39.080Z,24.18
2023-06-21T07:57:05.991Z,24.58
2023-06-21T07:59:33.558Z,24.91
2023-06-21T08:02:00.151Z,24.94
2023-06-21T08:04:27.057Z,24.90
2023-06-21T08:06:53.658Z,24.61
2023-06-21T08:09:20.121Z,24.44
2023-06-21T08:11:46.607Z,24.41
2023-06-21T08:14:13.370Z,24.65
2023-06-21T08:16:39.995Z,24.68
2023-06-21T08:19:06.824Z,24.42
2023-06-21T08:21:33.304Z,24.30
2023-06-21T08:23:59.725Z,24.27
2023-06-21T08:26:26.177Z,24.34
2023-06-21T08:28:52.685Z,24.45
2023-06-21T08:31:19.212Z,24.72
2023-06-21T08:33:45.899Z,24.99
2023-06-21T08:36:12.891Z,25.34
2023-06-21T08:38:39.389Z,25.37
2023-06-21T08:41:06.200Z,25.53
2023-06-21T08:43:32.903Z,25.71
2023-06-21T08:46:06.109Z,25.63
2023-06-21T08:48:36.971Z,25.23
2023-06-21T08:51:06.798Z,25.06
2023-06-21T08:53:40.036Z,24.98
2023-06-21T08:56:10.125Z,25.26
2023-06-21T08:58:55.486Z,25.53
2023-06-21T09:01:24.142Z,25.70
2023-06-21T09:03:59.301Z,25.74
2023-06-21T09:06:27.754Z,25.94
2023-06-21T09:08:55.260Z,25.81
2023-06-21T09:11:23.114Z,26.02
2023-06-21T09:13:50.599Z,26.20
2023-06-21T09:16:17.643Z,26.30
2023-06-21T09:18:45.050Z,25.92
2023-06-21T09:21:12.451Z,26.09
2023-06-21T09:23:40.581Z,26.27
2023-06-21T09:26:08.231Z,26.68
2023-06-21T09:28:34.824Z,27.07
2023-06-21T09:31:01.470Z,26.51
2023-06-21T09:33:28.406Z,26.60
2023-06-21T09:35:55.042Z,27.05
2023-06-21T09:38:25.353Z,27.12
2023-06-21T09:40:52.364Z,27.26
2023-06-21T09:43:22.972Z,27.42
2023-06-21T09:46:04.539Z,27.45
2023-06-21T09:48:39.102Z,27.27
2023-06-21T09:51:07.625Z,27.30
2023-06-21T09:53:34.076Z,27.19
2023-06-21T09:56:01.913Z,27.13
2023-06-21T09:58:29.380Z,27.35
2023-06-21T10:01:01.353Z,27.40
2023-06-21T10:03:28.410Z,27.50
2023-06-21T10:06:03.037Z,27.67
2023-06-21T10:08:32.804Z,27.77
2023-06-21T10:10:59.232Z,27.69
2023-06-21T10:13:27.644Z,27.59
2023-06-21T10:15:56.493Z,27.69
2023-06-21T10:18:24.385Z,27.67
2023-06-21T10:20:58.079Z,27.95
2023-06-21T10:23:30.053Z,27.85
2023-06-21T10:26:01.740Z,27.78
2023-06-21T10:28:31.966Z,27.85
2023-06-21T10:31:01.043Z,27.88
2023-06-21T10:33:31.689Z,27.93
2023-06-21T10:36:01.381Z,27.94
2023-06-21T10:38:35.702Z,28.00
2023-06-21T10:41:04.851Z,27.97
2023-06-21T10:43:31.930Z,28.22
2023-06-21T10:45:59.602Z,28.57
2023-06-21T10:48:27.231Z,28.46
2023-06-21T10:50:53.770Z,28.29
2023-06-21T10:53:22.790Z,28.08
2023-06-21T10:55:50.580Z,28.18
2023-06-21T10:58:18.064Z,28.40
2023-06-21T11:00:48.775Z,28.46
2023-06-21T11:03:17.606Z,28.36
2023-06-21T11:05:45.230Z,28.04
2023-06-21T11:08:15.369Z,27.73
2023-06-21T11:10:50.762Z,28.07
2023-06-21T11:13:33.513Z,27.93
2023-06-21T11:16:18.650Z,27.97
2023-06-21T11:19:00.772Z,28.07
2023-06-21T11:21:43.589Z,28.04
2023-06-21T11:24:12.161Z,28.15
2023-06-21T11:27:04.799Z,27.89
2023-06-21T11:29:37.222Z,27.95
2023-06-21T11:32:14.049Z,27.88
2023-06-21T11:34:57.603Z,27.91
2023-06-21T11:37:37.445Z,27.89
2023-06-21T11:40:06.816Z,27.78
2023-06-21T11:42:50.263Z,28.21
2023-06-21T11:45:21.627Z,28.19
2023-06-21T11:48:14.347Z,28.41
2023-06-21T11:50:45.905Z,28.29
2023-06-21T11:53:19.232Z,28.04
2023-06-21T11:55:47.363Z,27.81
2023-06-21T11:58:14.230Z,27.80
2023-06-21T12:00:42.145Z,27.94
2023-06-21T12:03:12.058Z,28.02
2023-06-21T12:05:54.860Z,28.23
2023-06-21T12:08:23.974Z,28.22
2023-06-21T12:10:50.416Z,28.48
2023-06-21T12:13:21.520Z,28.68
2023-06-21T12:15:59.359Z,28.47
2023-06-21T12:18:28.283Z,28.24
2023-06-21T12:20:56.187Z,28.19
2023-06-21T12:23:23.699Z,27.88
2023-06-21T12:25:55.399Z,27.78
2023-06-21T12:28:23.524Z,27.94
2023-06-21T12:30:51.167Z,27.61
2023-06-21T12:33:18.711Z,27.92
2023-06-21T12:35:45.877Z,28.05
2023-06-21T12:38:19.182Z,28.08
2023-06-21T12:40:52.714Z,28.14
2023-06-21T12:43:41.250Z,28.08
2023-06-21T12:46:08.324Z,28.13
2023-06-21T12:48:36.469Z,28.19
2023-06-21T12:51:03.548Z,28.41
2023-06-21T12:53:31.704Z,28.32
2023-06-21T12:56:06.488Z,28.28
2023-06-21T12:58:33.357Z,28.68
2023-06-21T13:01:01.124Z,28.91
2023-06-21T13:03:28.088Z,28.96
2023-06-21T13:05:55.082Z,28.91
2023-06-21T13:08:21.567Z,29.13
2023-06-21T13:10:48.152Z,29.11
2023-06-21T13:13:14.651Z,29.24
2023-06-21T13:15:41.285Z,28.97
2023-06-21T13:18:08.743Z,28.80
2023-06-21T13:20:37.326Z,29.01
2023-06-21T13:23:03.852Z,29.12
2023-06-21T13:25:30.481Z,29.07
2023-06-21T13:27:57.459Z,29.06
2023-06-21T13:30:24.245Z,28.89
2023-06-21T13:32:50.786Z,29.06
2023-06-21T13:35:17.404Z,29.03
2023-06-21T13:37:43.871Z,28.75
2023-06-21T13:40:10.761Z,28.27
2023-06-21T13:42:37.486Z,28.57
2023-06-21T13:45:04.792Z,28.89
2023-06-21T13:47:31.483Z,28.91
2023-06-21T13:49:58.079Z,28.95
2023-06-21T13:52:25.156Z,28.70
2023-06-21T13:54:51.788Z,28.12
2023-06-21T13:57:18.276Z,27.62
2023-06-21T13:59:46.653Z,27.46
2023-06-21T14:02:14.120Z,27.72
2023-06-21T14:04:42.216Z,27.81
2023-06-21T14:07:11.207Z,28.20
2023-06-21T14:09:42.007Z,28.49
2023-06-21T14:12:09.487Z,28.62
2023-06-21T14:14:43.069Z,28.21
2023-06-21T14:17:11.752Z,28.00
2023-06-21T14:19:41.962Z,28.27
2023-06-21T14:22:09.506Z,28.50
2023-06-21T14:24:36.044Z,28.72
2023-06-21T14:27:02.505Z,28.86
2023-06-21T14:29:29.310Z,28.56
2023-06-21T14:31:55.887Z,28.29
2023-06-21T14:34:22.423Z,28.62
2023-06-21T14:36:49.062Z,28.91
2023-06-21T14:39:15.665Z,29.16
2023-06-21T14:41:42.152Z,29.28
2023-06-21T14:44:08.656Z,29.19
2023-06-21T14:46:35.303Z,29.20
2023-06-21T14:49:02.096Z,29.30
2023-06-21T14:51:28.626Z,29.26
2023-06-21T14:53:56.621Z,29.18
2023-06-21T14:56:23.875Z,29.30
2023-06-21T14:58:50.504Z,29.15
2023-06-21T15:01:19.070Z,29.20
2023-06-21T15:03:46.397Z,29.35
2023-06-21T15:06:13.063Z,29.36
2023-06-21T15:08:39.549Z,29.19
2023-06-21T15:11:06.758Z,28.98
2023-06-21T15:13:33.803Z,28.67
2023-06-21T15:16:00.425Z,28.68
2023-06-21T15:18:26.979Z,28.89
2023-06-21T15:20:53.497Z,28.99
2023-06-21T15:23:20.072Z,28.83
2023-06-21T15:25:46.536Z,28.75
2023-06-21T15:28:12.925Z,28.85
2023-06-21T15:30:39.483Z,28.86
2023-06-21T15:33:06.507Z,28.92
2023-06-21T15:35:33.100Z,28.89
2023-06-21T15:37:59.540Z,28.67
2023-06-21T15:40:26.012Z,28.72
2023-06-21T15:42:52.650Z,28.42
2023-06-21T15:45:19.286Z,28.12
2023-06-21T15:47:45.841Z,28.18
2023-06-21T15:50:14.149Z,28.35
2023-06-21T15:52:40.731Z,28.47
2023-06-21T15:55:07.959Z,28.41
2023-06-21T15:57:35.028Z,28.50
2023-06-21T16:00:01.589Z,28.37
2023-06-21T16:02:28.160Z,28.42
2023-06-21T16:04:54.941Z,28.41
2023-06-21T16:07:22.047Z,28.43
2023-06-21T16:09:48.853Z,28.37
2023-06-21T16:12:15.355Z,28.28
2023-06-21T16:14:41.828Z,28.21
2023-06-21T16:17:08.475Z,28.22
2023-06-21T16:19:36.803Z,27.99
2023-06-21T16:22:03.865Z,27.84
2023-06-21T16:24:30.375Z,27.74
2023-06-21T16:26:57.026Z,27.59
2023-06-21T16:29:23.633Z,27.39
2023-06-21T16:31:51.075Z,27.26
2023-06-21T16:34:17.641Z,27.23
2023-06-21T16:36:44.087Z,27.07
2023-06-21T16:39:11.619Z,26.99
2023-06-21T16:41:38.107Z,26.94
2023-06-21T16:44:04.592Z,26.96
2023-06-21T16:46:31.062Z,26.87
2023-06-21T16:48:57.526Z,26.75
2023-06-21T16:51:25.585Z,26.63
2023-06-21T16:53:52.379Z,26.74
2023-06-21T16:56:24.111Z,26.85
2023-06-21T16:58:51.840Z,26.81
2023-06-21T17:01:18.352Z,26.81
2023-06-21T17:03:45.075Z,26.67
2023-06-21T17:06:11.642Z,26.63
2023-06-21T17:08:38.163Z,26.51
2023-06-21T17:11:04.599Z,26.49
2023-06-21T17:13:31.117Z,26.46
2023-06-21T17:16:00.132Z,26.41
2023-06-21T17:18:26.643Z,26.35
2023-06-21T17:20:53.130Z,26.24
2023-06-21T17:23:19.547Z,26.21
2023-06-21T17:25:46.037Z,26.23
2023-06-21T17:28:12.525Z,26.15
2023-06-21T17:30:39.075Z,26.08
2023-06-21T17:33:07.705Z,25.97
2023-06-21T17:35:34.468Z,25.87
2023-06-21T17:38:00.992Z,25.78
2023-06-21T17:40:27.497Z,25.69
2023-06-21T17:42:53.989Z,25.59
2023-06-21T17:45:20.519Z,25.51
2023-06-21T17:47:47.155Z,25.37
2023-06-21T17:50:13.866Z,25.26
2023-06-21T17:52:40.385Z,25.18
2023-06-21T17:55:07.008Z,25.13
2023-06-21T17:57:33.448Z,25.03
2023-06-21T17:59:59.908Z,24.90
2023-06-21T18:02:28.434Z,24.78
2023-06-21T18:04:56.060Z,24.75
2023-06-21T18:07:22.554Z,24.66
2023-06-21T18:09:48.981Z,24.59
2023-06-21T18:12:15.945Z,24.55
2023-06-21T18:14:42.551Z,24.54
2023-06-21T18:17:09.016Z,24.52
2023-06-21T18:19:35.742Z,24.47
2023-06-21T18:22:12.723Z,24.44
2023-06-21T18:24:40.668Z,24.42
2023-06-21T18:27:08.301Z,24.31
2023-06-21T18:29:34.769Z,24.15
2023-06-21T18:32:02.084Z,24.18
2023-06-21T18:34:28.798Z,24.17
2023-06-21T18:36:55.276Z,24.12
2023-06-21T18:39:21.797Z,23.94
2023-06-21T18:41:48.609Z,23.91
2023-06-21T18:44:15.057Z,23.93
2023-06-21T18:46:41.538Z,23.75
2023-06-21T18:49:08.042Z,23.43
2023-06-21T18:51:34.521Z,23.07
2023-06-21T18:54:01.947Z,22.85
2023-06-21T18:56:28.439Z,22.63
2023-06-21T18:58:57.586Z,22.52
2023-06-21T19:01:25.108Z,22.56
2023-06-21T19:03:51.859Z,22.60
2023-06-21T19:06:18.659Z,22.59
2023-06-21T19:08:45.088Z,22.36
2023-06-21T19:11:11.518Z,22.30
2023-06-21T19:13:39.395Z,22.38
2023-06-21T19:16:05.882Z,22.31
2023-06-21T19:18:32.353Z,22.14
2023-06-21T19:20:58.801Z,22.04
2023-06-21T19:23:25.224Z,21.95
2023-06-21T19:25:51.677Z,21.88
2023-06-21T19:28:18.457Z,21.95
2023-06-21T19:30:54.762Z,21.99
2023-06-21T19:33:21.886Z,21.95
2023-06-21T19:35:48.326Z,21.79
2023-06-21T19:38:14.865Z,21.56
2023-06-21T19:40:47.894Z,21.35
2023-06-21T19:43:14.934Z,21.20
2023-06-21T19:45:41.486Z,21.08
2023-06-21T19:50:35.902Z,20.76
2023-06-21T19:53:02.413Z,20.58
2023-06-21T19:55:28.890Z,20.58
2023-06-21T19:57:55.644Z,20.53
2023-06-21T20:00:24.611Z,20.47
2023-06-21T20:02:51.501Z,20.37
2023-06-21T20:05:20.124Z,20.18
2023-06-21T20:07:47.086Z,19.97
2023-06-21T20:10:13.546Z,19.78
2023-06-21T20:12:40.106Z,19.72
2023-06-21T20:15:06.977Z,19.76
2023-06-21T20:17:33.419Z,19.84
2023-06-21T20:19:59.918Z,19.92
2023-06-21T20:22:26.361Z,19.92
2023-06-21T20:24:53.197Z,19.86
2023-06-21T20:27:20.228Z,19.71
2023-06-21T20:29:46.728Z,19.58
2023-06-21T20:32:13.359Z,19.48
2023-06-21T20:34:39.998Z,19.35
2023-06-21T20:37:06.948Z,19.27
2023-06-21T20:39:33.461Z,19.13
2023-06-21T20:42:03.011Z,19.08
2023-06-21T20:44:33.282Z,19.08
2023-06-21T20:46:59.913Z,19.05
2023-06-21T20:49:28.440Z,18.91
2023-06-21T20:51:55.778Z,18.69
2023-06-21T20:54:22.349Z,18.62
2023-06-21T20:56:48.820Z,18.69
2023-06-21T20:59:15.763Z,18.77
2023-06-21T21:01:42.445Z,18.72
2023-06-21T21:04:10.378Z,18.69
2023-06-21T21:06:37.245Z,18.71
2023-06-21T21:09:05.414Z,18.70
2023-06-21T21:11:31.860Z,18.75
2023-06-21T21:14:01.397Z,18.72
2023-06-21T21:16:27.929Z,18.67
2023-06-21T21:18:54.465Z,18.66
2023-06-21T21:21:21.880Z,18.62
2023-06-21T21:23:48.288Z,18.51
2023-06-21T21:26:15.121Z,18.48
2023-06-21T21:28:41.570Z,18.35
2023-06-21T21:31:08.098Z,18.13
2023-06-21T21:33:34.638Z,18.06
2023-06-21T21:36:01.066Z,18.10
2023-06-21T21:38:27.561Z,18.13
2023-06-21T21:40:54.156Z,18.14
2023-06-21T21:43:20.655Z,18.14
2023-06-21T21:45:47.408Z,18.15
2023-06-21T21:48:14.098Z,18.14
2023-06-21T21:50:40.666Z,18.15
2023-06-21T21:53:07.260Z,18.16
2023-06-21T21:55:33.788Z,18.07
2023-06-21T21:58:00.331Z,18.01
2023-06-21T22:00:27.013Z,17.95
2023-06-21T22:02:54.365Z,17.89
2023-06-21T22:05:21.037Z,17.71
2023-06-21T22:07:47.521Z,17.58
2023-06-21T22:10:31.646Z,17.58
2023-06-21T22:13:00.436Z,17.67
2023-06-21T22:15:26.958Z,17.68
2023-06-21T22:17:53.570Z,17.69
2023-06-21T22:20:21.636Z,17.71
2023-06-21T22:22:48.112Z,17.61
2023-06-21T22:25:14.593Z,17.58
2023-06-21T22:27:41.987Z,17.56
2023-06-21T22:30:10.405Z,17.63
2023-06-21T22:32:36.943Z,17.62
2023-06-21T22:35:04.186Z,17.59
2023-06-21T22:37:30.630Z,17.57
2023-06-21T22:39:57.082Z,17.56
2023-06-21T22:42:23.559Z,17.54
2023-06-21T22:44:50.022Z,17.51
2023-06-21T22:47:16.582Z,17.48
2023-06-21T22:49:45.736Z,17.46
2023-06-21T22:52:12.401Z,17.42
2023-06-21T22:54:40.259Z,17.37
2023-06-21T22:57:09.111Z,17.34
2023-06-21T22:59:36.234Z,17.28
2023-06-21T23:02:02.753Z,17.30
2023-06-21T23:04:29.865Z,17.28
2023-06-21T23:06:56.407Z,17.24
2023-06-21T23:09:23.701Z,17.12
2023-06-21T23:11:50.203Z,16.90
2023-06-21T23:14:19.067Z,16.73
2023-06-21T23:16:45.695Z,16.60
2023-06-21T23:19:14.150Z,16.46
2023-06-21T23:21:42.152Z,16.44
2023-06-21T23:24:09.308Z,16.44
2023-06-21T23:26:35.779Z,16.40
2023-06-21T23:29:02.348Z,16.35
2023-06-21T23:31:34.152Z,16.30
2023-06-21T23:34:01.882Z,16.31
2023-06-21T23:36:31.443Z,16.36
2023-06-21T23:39:02.089Z,16.47
2023-06-21T23:41:31.990Z,16.54
2023-06-21T23:44:02.666Z,16.56
2023-06-21T23:46:32.833Z,16.53
2023-06-21T23:49:01.245Z,16.52
2023-06-21T23:51:30.796Z,16.51
2023-06-21T23:53:57.423Z,16.50
2023-06-21T23:56:24.967Z,16.51
2023-06-21T23:58:52.856Z,16.46
